sensor_id;sensor_type;location;lat;lon;timestamp;P1;durP1;ratioP1;P2;durP2;ratioP2
42104;SDS011;61464;51.472;5.712;2022-11-18T03:53:57;7.68;;;1.90;;
42104;SDS011;61464;51.472;5.712;2022-11-18T03:57:36;5.75;;;2.00;;
42104;SDS011;61464;51.472;5.712;2022-11-18T05:37:53;8.70;;;3.42;;
42104;SDS011;61464;51.472;5.712;2022-11-18T08:42:30;13.52;;;5.45;;
42104;SDS011;61464;51.472;5.712;2022-11-18T08:50:06;9.00;;;4.47;;
42104;SDS011;61464;51.472;5.712;2022-11-18T08:52:35;11.05;;;4.68;;
42104;SDS011;61464;51.472;5.712;2022-11-18T08:55:30;14.27;;;4.10;;
42104;SDS011;61464;51.472;5.712;2022-11-18T09:07:50;11.15;;;3.95;;
42104;SDS011;61464;51.472;5.712;2022-11-18T09:10:39;8.23;;;3.75;;
42104;SDS011;61464;51.472;5.712;2022-11-18T09:13:05;9.02;;;3.38;;
42104;SDS011;61464;51.472;5.712;2022-11-18T09:15:42;6.30;;;3.28;;
42104;SDS011;61464;51.472;5.712;2022-11-18T09:22:34;6.90;;;2.90;;
42104;SDS011;61464;51.472;5.712;2022-11-18T09:25:20;5.20;;;3.03;;
42104;SDS011;61464;51.472;5.712;2022-11-18T09:31:18;10.82;;;2.95;;
42104;SDS011;61464;51.472;5.712;2022-11-18T09:34:57;7.45;;;2.70;;
42104;SDS011;61464;51.472;5.712;2022-11-18T09:50:21;5.70;;;2.05;;
42104;SDS011;61464;51.472;5.712;2022-11-18T10:00:45;8.45;;;2.50;;
42104;SDS011;61464;51.472;5.712;2022-11-18T10:03:50;8.35;;;2.50;;
42104;SDS011;61464;51.472;5.712;2022-11-18T10:22:41;7.78;;;2.22;;
42104;SDS011;61464;51.472;5.712;2022-11-18T10:25:28;11.43;;;2.75;;
42104;SDS011;61464;51.472;5.712;2022-11-18T10:28:27;7.00;;;2.30;;
42104;SDS011;61464;51.472;5.712;2022-11-18T10:36:32;11.27;;;2.38;;
42104;SDS011;61464;51.472;5.712;2022-11-18T10:39:05;7.43;;;2.45;;
42104;SDS011;61464;51.472;5.712;2022-11-18T10:42:36;7.88;;;2.70;;
42104;SDS011;61464;51.472;5.712;2022-11-18T10:48:15;10.75;;;2.38;;
42104;SDS011;61464;51.472;5.712;2022-11-18T10:51:27;6.35;;;2.17;;
42104;SDS011;61464;51.472;5.712;2022-11-18T10:59:58;7.65;;;2.03;;
42104;SDS011;61464;51.472;5.712;2022-11-18T11:08:03;6.85;;;2.40;;
42104;SDS011;61464;51.472;5.712;2022-11-18T11:11:04;8.35;;;2.20;;
42104;SDS011;61464;51.472;5.712;2022-11-18T11:13:55;11.20;;;2.28;;
42104;SDS011;61464;51.472;5.712;2022-11-18T11:16:58;7.20;;;1.95;;
42104;SDS011;61464;51.472;5.712;2022-11-18T11:30:55;10.32;;;2.33;;
42104;SDS011;61464;51.472;5.712;2022-11-18T11:49:17;10.35;;;2.40;;
42104;SDS011;61464;51.472;5.712;2022-11-18T11:51:54;8.32;;;2.58;;
42104;SDS011;61464;51.472;5.712;2022-11-18T12:04:48;11.95;;;2.30;;
42104;SDS011;61464;51.472;5.712;2022-11-18T12:07:41;10.98;;;2.53;;
42104;SDS011;61464;51.472;5.712;2022-11-18T12:10:32;9.63;;;2.58;;
42104;SDS011;61464;51.472;5.712;2022-11-18T12:32:48;8.90;;;2.25;;
42104;SDS011;61464;51.472;5.712;2022-11-18T12:35:33;9.75;;;2.72;;
42104;SDS011;61464;51.472;5.712;2022-11-18T12:38:03;8.20;;;2.70;;
42104;SDS011;61464;51.472;5.712;2022-11-18T12:40:37;10.98;;;3.17;;
42104;SDS011;61464;51.472;5.712;2022-11-18T12:53:09;9.23;;;2.63;;
42104;SDS011;61464;51.472;5.712;2022-11-18T12:56:08;9.25;;;2.30;;
42104;SDS011;61464;51.472;5.712;2022-11-18T12:59:01;9.50;;;2.60;;
42104;SDS011;61464;51.472;5.712;2022-11-18T13:01:34;7.47;;;2.55;;
42104;SDS011;61464;51.472;5.712;2022-11-18T13:04:17;12.25;;;2.53;;
42104;SDS011;61464;51.472;5.712;2022-11-18T13:06:48;9.48;;;2.95;;
42104;SDS011;61464;51.472;5.712;2022-11-18T13:09:20;10.32;;;3.50;;
42104;SDS011;61464;51.472;5.712;2022-11-18T13:11:50;7.68;;;2.63;;
42104;SDS011;61464;51.472;5.712;2022-11-18T13:14:33;10.25;;;2.78;;
42104;SDS011;61464;51.472;5.712;2022-11-18T13:17:29;9.20;;;2.75;;
42104;SDS011;61464;51.472;5.712;2022-11-18T13:26:10;7.45;;;2.08;;
42104;SDS011;61464;51.472;5.712;2022-11-18T13:34:29;9.32;;;2.90;;
42104;SDS011;61464;51.472;5.712;2022-11-18T13:37:11;10.55;;;3.03;;
42104;SDS011;61464;51.472;5.712;2022-11-18T13:39:50;13.38;;;3.10;;
42104;SDS011;61464;51.472;5.712;2022-11-18T13:45:00;11.55;;;2.75;;
42104;SDS011;61464;51.472;5.712;2022-11-18T13:59:19;11.50;;;2.92;;
42104;SDS011;61464;51.472;5.712;2022-11-18T14:05:32;8.20;;;3.10;;
42104;SDS011;61464;51.472;5.712;2022-11-18T14:08:27;9.43;;;2.60;;
42104;SDS011;61464;51.472;5.712;2022-11-18T14:21:53;10.95;;;3.22;;
42104;SDS011;61464;51.472;5.712;2022-11-18T14:44:59;13.77;;;4.00;;
42104;SDS011;61464;51.472;5.712;2022-11-18T14:47:27;9.02;;;3.97;;
42104;SDS011;61464;51.472;5.712;2022-11-18T14:50:01;15.43;;;3.88;;
42104;SDS011;61464;51.472;5.712;2022-11-18T14:52:36;10.43;;;3.55;;
42104;SDS011;61464;51.472;5.712;2022-11-18T14:55:02;11.73;;;3.90;;
42104;SDS011;61464;51.472;5.712;2022-11-18T14:57:31;9.35;;;3.75;;
42104;SDS011;61464;51.472;5.712;2022-11-18T15:00:18;13.43;;;4.65;;
42104;SDS011;61464;51.472;5.712;2022-11-18T15:02:45;12.07;;;4.43;;
42104;SDS011;61464;51.472;5.712;2022-11-18T15:05:19;13.32;;;4.57;;
42104;SDS011;61464;51.472;5.712;2022-11-18T15:10:51;14.43;;;4.80;;
42104;SDS011;61464;51.472;5.712;2022-11-18T15:13:29;9.43;;;3.60;;
42104;SDS011;61464;51.472;5.712;2022-11-18T15:20:38;8.07;;;3.55;;
42104;SDS011;61464;51.472;5.712;2022-11-18T15:23:21;11.18;;;3.92;;
42104;SDS011;61464;51.472;5.712;2022-11-18T15:26:17;11.27;;;3.85;;
42104;SDS011;61464;51.472;5.712;2022-11-18T15:29:17;8.60;;;3.40;;
42104;SDS011;61464;51.472;5.712;2022-11-18T15:31:47;8.18;;;3.83;;
42104;SDS011;61464;51.472;5.712;2022-11-18T15:34:22;11.25;;;3.70;;
42104;SDS011;61464;51.472;5.712;2022-11-18T15:36:48;12.48;;;4.13;;
42104;SDS011;61464;51.472;5.712;2022-11-18T15:39:19;9.57;;;4.35;;
42104;SDS011;61464;51.472;5.712;2022-11-18T15:41:45;11.35;;;4.32;;
42104;SDS011;61464;51.472;5.712;2022-11-18T15:44:14;8.27;;;3.67;;
42104;SDS011;61464;51.472;5.712;2022-11-18T15:46:43;7.75;;;3.33;;
42104;SDS011;61464;51.472;5.712;2022-11-18T15:49:13;7.05;;;3.42;;
42104;SDS011;61464;51.472;5.712;2022-11-18T15:51:41;7.00;;;3.22;;
42104;SDS011;61464;51.472;5.712;2022-11-18T15:54:09;9.25;;;3.80;;
42104;SDS011;61464;51.472;5.712;2022-11-18T15:56:36;6.63;;;3.20;;
42104;SDS011;61464;51.472;5.712;2022-11-18T15:59:05;5.55;;;3.10;;
42104;SDS011;61464;51.472;5.712;2022-11-18T16:01:44;7.20;;;3.08;;
42104;SDS011;61464;51.472;5.712;2022-11-18T16:04:25;7.57;;;3.63;;
42104;SDS011;61464;51.472;5.712;2022-11-18T16:07:00;10.38;;;3.67;;
42104;SDS011;61464;51.472;5.712;2022-11-18T16:09:28;6.95;;;3.30;;
42104;SDS011;61464;51.472;5.712;2022-11-18T16:12:15;5.57;;;3.35;;
42104;SDS011;61464;51.472;5.712;2022-11-18T16:15:00;8.07;;;3.80;;
42104;SDS011;61464;51.472;5.712;2022-11-18T16:17:45;7.07;;;4.38;;
42104;SDS011;61464;51.472;5.712;2022-11-18T16:20:11;8.55;;;4.15;;
42104;SDS011;61464;51.472;5.712;2022-11-18T16:22:37;8.18;;;4.10;;
42104;SDS011;61464;51.472;5.712;2022-11-18T16:25:03;10.23;;;4.30;;
42104;SDS011;61464;51.472;5.712;2022-11-18T16:27:30;8.95;;;4.90;;
42104;SDS011;61464;51.472;5.712;2022-11-18T16:29:56;11.80;;;4.90;;
42104;SDS011;61464;51.472;5.712;2022-11-18T16:32:22;8.27;;;4.38;;
42104;SDS011;61464;51.472;5.712;2022-11-18T16:34:48;8.18;;;4.30;;
42104;SDS011;61464;51.472;5.712;2022-11-18T16:37:16;11.40;;;4.40;;
42104;SDS011;61464;51.472;5.712;2022-11-18T16:39:43;8.77;;;5.03;;
42104;SDS011;61464;51.472;5.712;2022-11-18T16:42:09;8.98;;;4.88;;
42104;SDS011;61464;51.472;5.712;2022-11-18T16:44:41;8.98;;;4.95;;
42104;SDS011;61464;51.472;5.712;2022-11-18T16:47:07;10.45;;;4.95;;
42104;SDS011;61464;51.472;5.712;2022-11-18T16:49:35;12.70;;;5.03;;
42104;SDS011;61464;51.472;5.712;2022-11-18T16:52:01;9.32;;;5.05;;
42104;SDS011;61464;51.472;5.712;2022-11-18T16:54:29;11.38;;;6.30;;
42104;SDS011;61464;51.472;5.712;2022-11-18T16:56:56;9.90;;;6.55;;
42104;SDS011;61464;51.472;5.712;2022-11-18T16:59:24;14.60;;;7.55;;
42104;SDS011;61464;51.472;5.712;2022-11-18T17:01:56;14.80;;;6.95;;
42104;SDS011;61464;51.472;5.712;2022-11-18T17:04:24;10.90;;;6.82;;
42104;SDS011;61464;51.472;5.712;2022-11-18T17:06:52;8.90;;;6.35;;
42104;SDS011;61464;51.472;5.712;2022-11-18T17:09:21;13.85;;;6.70;;
42104;SDS011;61464;51.472;5.712;2022-11-18T17:11:53;11.85;;;7.13;;
42104;SDS011;61464;51.472;5.712;2022-11-18T17:14:27;14.98;;;8.43;;
42104;SDS011;61464;51.472;5.712;2022-11-18T17:16:54;16.90;;;7.80;;
42104;SDS011;61464;51.472;5.712;2022-11-18T17:19:27;14.20;;;8.68;;
42104;SDS011;61464;51.472;5.712;2022-11-18T17:22:03;18.13;;;9.38;;
42104;SDS011;61464;51.472;5.712;2022-11-18T17:24:40;16.52;;;9.05;;
42104;SDS011;61464;51.472;5.712;2022-11-18T17:27:10;16.90;;;9.20;;
42104;SDS011;61464;51.472;5.712;2022-11-18T17:29:37;19.55;;;8.85;;
42104;SDS011;61464;51.472;5.712;2022-11-18T17:32:21;16.80;;;9.40;;
42104;SDS011;61464;51.472;5.712;2022-11-18T17:34:59;14.73;;;8.30;;
42104;SDS011;61464;51.472;5.712;2022-11-18T17:37:43;16.45;;;8.90;;
42104;SDS011;61464;51.472;5.712;2022-11-18T17:55:03;15.60;;;9.38;;
42104;SDS011;61464;51.472;5.712;2022-11-18T17:57:45;17.98;;;10.05;;
42104;SDS011;61464;51.472;5.712;2022-11-18T18:00:15;15.18;;;9.20;;
42104;SDS011;61464;51.472;5.712;2022-11-18T18:02:42;14.43;;;8.70;;
42104;SDS011;61464;51.472;5.712;2022-11-18T18:05:14;15.95;;;8.85;;
42104;SDS011;61464;51.472;5.712;2022-11-18T18:10:44;15.75;;;8.90;;
42104;SDS011;61464;51.472;5.712;2022-11-18T18:16:48;18.05;;;9.50;;
42104;SDS011;61464;51.472;5.712;2022-11-18T18:19:36;17.48;;;9.10;;
42104;SDS011;61464;51.472;5.712;2022-11-18T18:22:37;18.40;;;8.98;;
42104;SDS011;61464;51.472;5.712;2022-11-18T18:31:39;15.43;;;9.73;;
42104;SDS011;61464;51.472;5.712;2022-11-18T18:34:33;18.45;;;10.10;;
42104;SDS011;61464;51.472;5.712;2022-11-18T18:40:22;18.80;;;9.63;;
42104;SDS011;61464;51.472;5.712;2022-11-18T19:13:22;17.15;;;10.52;;
42104;SDS011;61464;51.472;5.712;2022-11-18T19:15:52;16.65;;;9.93;;
42104;SDS011;61464;51.472;5.712;2022-11-18T19:18:25;19.27;;;11.48;;
42104;SDS011;61464;51.472;5.712;2022-11-18T19:21:36;17.40;;;11.15;;
42104;SDS011;61464;51.472;5.712;2022-11-18T19:24:06;18.98;;;11.60;;
42104;SDS011;61464;51.472;5.712;2022-11-18T19:33:26;22.27;;;12.48;;
42104;SDS011;61464;51.472;5.712;2022-11-18T19:36:28;22.67;;;12.77;;
42104;SDS011;61464;51.472;5.712;2022-11-18T19:38:57;20.60;;;11.95;;
42104;SDS011;61464;51.472;5.712;2022-11-18T19:41:39;24.27;;;14.40;;
42104;SDS011;61464;51.472;5.712;2022-11-18T19:44:07;23.17;;;14.68;;
42104;SDS011;61464;51.472;5.712;2022-11-18T19:47:02;26.35;;;14.55;;
42104;SDS011;61464;51.472;5.712;2022-11-18T19:49:29;25.27;;;14.15;;
42104;SDS011;61464;51.472;5.712;2022-11-18T19:51:55;24.88;;;13.10;;
42104;SDS011;61464;51.472;5.712;2022-11-18T19:54:21;29.40;;;16.48;;
42104;SDS011;61464;51.472;5.712;2022-11-18T19:56:49;26.25;;;17.25;;
42104;SDS011;61464;51.472;5.712;2022-11-18T19:59:15;30.67;;;17.10;;
42104;SDS011;61464;51.472;5.712;2022-11-18T20:01:43;31.60;;;17.85;;
42104;SDS011;61464;51.472;5.712;2022-11-18T20:04:20;32.15;;;18.45;;
42104;SDS011;61464;51.472;5.712;2022-11-18T20:06:55;27.35;;;17.90;;
42104;SDS011;61464;51.472;5.712;2022-11-18T20:09:27;27.50;;;17.40;;
42104;SDS011;61464;51.472;5.712;2022-11-18T20:11:53;72.97;;;35.20;;
42104;SDS011;61464;51.472;5.712;2022-11-18T20:14:21;85.43;;;43.28;;
42104;SDS011;61464;51.472;5.712;2022-11-18T20:16:48;49.53;;;27.30;;
42104;SDS011;61464;51.472;5.712;2022-11-18T20:19:15;51.50;;;24.80;;
42104;SDS011;61464;51.472;5.712;2022-11-18T20:21:42;33.78;;;21.17;;
42104;SDS011;61464;51.472;5.712;2022-11-18T20:24:09;27.33;;;15.70;;
42104;SDS011;61464;51.472;5.712;2022-11-18T20:26:40;27.10;;;16.27;;
42104;SDS011;61464;51.472;5.712;2022-11-18T20:29:07;31.58;;;19.27;;
42104;SDS011;61464;51.472;5.712;2022-11-18T20:31:33;30.95;;;17.88;;
42104;SDS011;61464;51.472;5.712;2022-11-18T20:34:00;26.40;;;17.00;;
42104;SDS011;61464;51.472;5.712;2022-11-18T20:36:31;31.13;;;17.65;;
42104;SDS011;61464;51.472;5.712;2022-11-18T20:39:01;28.73;;;17.40;;
42104;SDS011;61464;51.472;5.712;2022-11-18T20:41:32;31.48;;;17.90;;
42104;SDS011;61464;51.472;5.712;2022-11-18T20:44:00;24.50;;;15.68;;
42104;SDS011;61464;51.472;5.712;2022-11-18T20:46:26;27.92;;;16.38;;
42104;SDS011;61464;51.472;5.712;2022-11-18T20:48:52;29.90;;;16.55;;
42104;SDS011;61464;51.472;5.712;2022-11-18T20:51:19;26.42;;;15.57;;
42104;SDS011;61464;51.472;5.712;2022-11-18T20:53:51;22.00;;;12.95;;
42104;SDS011;61464;51.472;5.712;2022-11-18T20:56:19;19.75;;;12.55;;
42104;SDS011;61464;51.472;5.712;2022-11-18T20:58:48;17.67;;;10.82;;
42104;SDS011;61464;51.472;5.712;2022-11-18T21:01:15;17.13;;;9.52;;
42104;SDS011;61464;51.472;5.712;2022-11-18T21:03:51;12.48;;;7.50;;
42104;SDS011;61464;51.472;5.712;2022-11-18T21:06:24;13.63;;;6.95;;
42104;SDS011;61464;51.472;5.712;2022-11-18T21:08:56;10.02;;;6.15;;
42104;SDS011;61464;51.472;5.712;2022-11-18T21:11:27;11.98;;;6.85;;
42104;SDS011;61464;51.472;5.712;2022-11-18T21:13:53;9.93;;;6.00;;
42104;SDS011;61464;51.472;5.712;2022-11-18T21:16:38;11.27;;;6.00;;
42104;SDS011;61464;51.472;5.712;2022-11-18T21:19:06;9.27;;;5.07;;
42104;SDS011;61464;51.472;5.712;2022-11-18T21:21:32;11.85;;;5.78;;
42104;SDS011;61464;51.472;5.712;2022-11-18T21:24:20;9.32;;;5.50;;
42104;SDS011;61464;51.472;5.712;2022-11-18T21:26:53;9.43;;;5.68;;
42104;SDS011;61464;51.472;5.712;2022-11-18T21:29:20;13.75;;;7.43;;
42104;SDS011;61464;51.472;5.712;2022-11-18T21:31:49;14.13;;;8.07;;
42104;SDS011;61464;51.472;5.712;2022-11-18T21:34:16;20.05;;;9.82;;
42104;SDS011;61464;51.472;5.712;2022-11-18T21:36:42;19.02;;;10.15;;
42104;SDS011;61464;51.472;5.712;2022-11-18T21:39:10;23.83;;;13.40;;
42104;SDS011;61464;51.472;5.712;2022-11-18T21:41:41;28.40;;;14.75;;
42104;SDS011;61464;51.472;5.712;2022-11-18T21:44:08;31.35;;;17.33;;
42104;SDS011;61464;51.472;5.712;2022-11-18T21:46:46;27.40;;;14.95;;
42104;SDS011;61464;51.472;5.712;2022-11-18T21:49:35;31.02;;;16.30;;
42104;SDS011;61464;51.472;5.712;2022-11-18T21:52:12;34.72;;;17.35;;
42104;SDS011;61464;51.472;5.712;2022-11-18T21:54:37;30.90;;;15.63;;
42104;SDS011;61464;51.472;5.712;2022-11-18T21:57:04;32.40;;;16.90;;
42104;SDS011;61464;51.472;5.712;2022-11-18T21:59:30;31.88;;;17.42;;
42104;SDS011;61464;51.472;5.712;2022-11-18T22:02:06;31.90;;;17.20;;
42104;SDS011;61464;51.472;5.712;2022-11-18T22:04:37;29.92;;;16.77;;
42104;SDS011;61464;51.472;5.712;2022-11-18T22:07:22;31.23;;;17.60;;
42104;SDS011;61464;51.472;5.712;2022-11-18T22:09:49;35.95;;;18.98;;
42104;SDS011;61464;51.472;5.712;2022-11-18T22:12:30;32.90;;;17.80;;
42104;SDS011;61464;51.472;5.712;2022-11-18T22:15:05;34.97;;;19.17;;
42104;SDS011;61464;51.472;5.712;2022-11-18T22:17:39;36.92;;;19.42;;
42104;SDS011;61464;51.472;5.712;2022-11-18T22:20:07;38.55;;;18.85;;
42104;SDS011;61464;51.472;5.712;2022-11-18T22:22:51;43.22;;;18.88;;
42104;SDS011;61464;51.472;5.712;2022-11-18T22:25:21;42.67;;;19.65;;
42104;SDS011;61464;51.472;5.712;2022-11-18T22:28:02;44.55;;;20.70;;
42104;SDS011;61464;51.472;5.712;2022-11-18T22:30:34;48.25;;;21.38;;
42104;SDS011;61464;51.472;5.712;2022-11-18T22:33:09;42.20;;;20.05;;
42104;SDS011;61464;51.472;5.712;2022-11-18T22:53:37;39.72;;;20.23;;
42104;SDS011;61464;51.472;5.712;2022-11-18T22:59:56;43.22;;;20.88;;
42104;SDS011;61464;51.472;5.712;2022-11-18T23:32:46;57.00;;;26.95;;
42104;SDS011;61464;51.472;5.712;2022-11-18T23:35:36;63.75;;;28.42;;
42104;SDS011;61464;51.472;5.712;2022-11-18T23:38:25;60.53;;;28.65;;
42104;SDS011;61464;51.472;5.712;2022-11-18T23:40:58;60.65;;;27.05;;
42104;SDS011;61464;51.472;5.712;2022-11-18T23:46:27;52.40;;;23.98;;
42104;SDS011;61464;51.472;5.712;2022-11-18T23:59:04;59.28;;;26.40;;
